Time;durP1;ratioP1;P1;durP2;ratioP2;P2;SDS_P1;SDS_P2;PMS_P1;PMS_P2;Temp;Humidity;BMP_temperature;BMP_pressure;BME280_temperature;BME280_humidity;BME280_pressure;Samples;Min_cycle;Max_cycle;Signal;HPM_P1;HPM_P2
2023/08/08 00:02:22;;;;;;;4.97;2.63;;;;;;;-141.23;100.00;62281.09;5054051;28;20041;-70
2023/08/08 00:04:50;;;;;;;5.85;2.40;;;;;;;-141.23;100.00;62281.09;5019646;28;20148;-68
2023/08/08 00:07:16;;;;;;;7.70;2.30;;;;;;;-141.23;100.00;62281.09;5036830;28;20060;-68
2023/08/08 00:09:42;;;;;;;4.40;2.50;;;;;;;-141.23;100.00;62281.09;5020023;28;20048;-67
2023/08/08 00:12:08;;;;;;;7.07;2.22;;;;;;;-141.23;100.00;62281.09;5019617;28;20126;-68
2023/08/08 00:14:34;;;;;;;10.38;2.95;;;;;;;-141.23;100.00;62281.09;5002722;28;20049;-67
2023/08/08 00:17:00;;;;;;;7.47;2.40;;;;;;;-141.23;100.00;62281.09;5002980;28;20040;-68
2023/08/08 00:19:26;;;;;;;5.65;2.45;;;;;;;-141.23;100.00;62281.09;5019455;28;20052;-67
2023/08/08 00:21:52;;;;;;;4.97;2.22;;;;;;;-141.23;100.00;62281.09;5052726;28;20175;-67
2023/08/08 00:24:18;;;;;;;6.97;2.30;;;;;;;-141.23;100.00;62281.09;5052928;28;20048;-68
2023/08/08 00:26:46;;;;;;;4.20;2.00;;;;;;;-141.23;100.00;62281.09;5018683;28;20057;-67
2023/08/08 00:29:12;;;;;;;12.55;2.28;;;;;;;-141.23;100.00;62281.09;4986982;28;20138;-69
2023/08/08 00:31:38;;;;;;;8.90;2.50;;;;;;;-141.23;100.00;62281.09;5019692;28;20656;-67
2023/08/08 00:34:04;;;;;;;6.68;2.20;;;;;;;-141.23;100.00;62281.09;5035239;28;20127;-67
2023/08/08 00:36:30;;;;;;;6.40;2.47;;;;;;;-141.23;100.00;62281.09;5003302;28;20395;-67
2023/08/08 00:38:56;;;;;;;12.10;2.63;;;;;;;-141.23;100.00;62281.09;5003055;28;20045;-67
2023/08/08 00:41:22;;;;;;;9.35;2.70;;;;;;;-141.23;100.00;62281.09;5018995;28;20114;-67
2023/08/08 00:43:49;;;;;;;10.90;2.80;;;;;;;-141.23;100.00;62281.09;5018701;28;20127;-68
2023/08/08 00:46:19;;;;;;;17.20;2.80;;;;;;;-141.23;100.00;62281.09;5035276;28;20067;-67
2023/08/08 00:48:46;;;;;;;12.75;2.85;;;;;;;-141.23;100.00;62281.09;5019023;28;20049;-67
2023/08/08 00:51:13;;;;;;;12.38;2.47;;;;;;;-141.23;100.00;62281.09;5018375;28;20047;-67
2023/08/08 00:53:40;;;;;;;17.65;2.60;;;;;;;-141.23;100.00;62281.09;5002093;28;20071;-68
2023/08/08 00:56:06;;;;;;;9.73;2.60;;;;;;;-141.23;100.00;62281.09;5034780;28;20060;-67
2023/08/08 00:58:33;;;;;;;11.35;2.83;;;;;;;-141.23;100.00;62281.09;5035899;28;20072;-68
2023/08/08 01:00:59;;;;;;;15.25;3.15;;;;;;;-141.23;100.00;62281.09;5035993;28;20048;-68
2023/08/08 01:03:26;;;;;;;15.60;3.40;;;;;;;-141.23;100.00;62281.09;5002561;28;20045;-68
2023/08/08 01:06:03;;;;;;;11.00;3.20;;;;;;;-141.23;100.00;62281.09;5051989;28;20132;-68
2023/08/08 01:08:45;;;;;;;8.43;2.65;;;;;;;-141.23;100.00;62281.09;5052130;28;20059;-67
2023/08/08 01:11:11;;;;;;;12.85;3.17;;;;;;;-141.23;100.00;62281.09;5002625;28;20052;-68
2023/08/08 01:13:37;;;;;;;6.30;2.50;;;;;;;-141.23;100.00;62281.09;5034546;28;20056;-66
2023/08/08 01:16:04;;;;;;;9.20;2.83;;;;;;;-141.23;100.00;62281.09;5035538;28;20494;-67
2023/08/08 01:18:32;;;;;;;9.13;2.53;;;;;;;-141.23;100.00;62281.09;5052502;28;20143;-67
2023/08/08 01:20:58;;;;;;;6.07;2.65;;;;;;;-141.23;100.00;62281.09;5002883;28;20428;-66
2023/08/08 01:23:30;;;;;;;5.07;2.58;;;;;;;-141.23;100.00;62281.09;5002751;28;20154;-67
2023/08/08 01:25:57;;;;;;;9.85;2.60;;;;;;;-141.23;100.00;62281.09;5052977;28;20045;-67
2023/08/08 01:28:26;;;;;;;5.90;2.55;;;;;;;-141.23;100.00;62281.09;5035869;28;20047;-67
2023/08/08 01:30:53;;;;;;;7.10;2.63;;;;;;;-141.23;100.00;62281.09;5035473;28;20049;-70
2023/08/08 01:33:20;;;;;;;4.97;2.97;;;;;;;-141.23;100.00;62281.09;5035126;28;20082;-66
2023/08/08 01:35:53;;;;;;;17.13;2.90;;;;;;;-141.23;100.00;62281.09;5052960;28;20045;-66
2023/08/08 01:38:35;;;;;;;9.50;3.13;;;;;;;-141.23;100.00;62281.09;4998416;28;20053;-67
2023/08/08 01:41:01;;;;;;;9.02;2.78;;;;;;;-141.23;100.00;62281.09;4998761;28;20045;-68
2023/08/08 01:43:28;;;;;;;7.32;3.00;;;;;;;-141.23;100.00;62281.09;4997922;28;20053;-67
2023/08/08 01:45:54;;;;;;;9.73;3.22;;;;;;;-141.23;100.00;62281.09;4965345;28;20042;-67
2023/08/08 01:48:21;;;;;;;10.95;3.45;;;;;;;-141.23;100.00;62281.09;4981641;28;20041;-67
2023/08/08 01:50:48;;;;;;;5.25;3.10;;;;;;;-141.23;100.00;62281.09;5013856;28;20045;-67
2023/08/08 01:53:15;;;;;;;8.65;3.28;;;;;;;-141.23;100.00;62281.09;5013731;28;20049;-66
2023/08/08 01:55:40;;;;;;;6.05;3.20;;;;;;;-141.23;100.00;62281.09;5013863;28;20501;-66
2023/08/08 01:58:08;;;;;;;4.95;2.58;;;;;;;-141.23;100.00;62281.09;5014179;28;20049;-67
2023/08/08 02:00:34;;;;;;;6.72;3.00;;;;;;;-141.23;100.00;62281.09;4982559;28;20096;-67
2023/08/08 02:03:00;;;;;;;3.20;2.50;;;;;;;-141.23;100.00;62281.09;4965472;28;20084;-67
2023/08/08 02:05:26;;;;;;;6.38;3.10;;;;;;;-141.23;100.00;62281.09;5014016;28;20045;-67
2023/08/08 02:07:52;;;;;;;5.05;2.65;;;;;;;-141.23;100.00;62281.09;4997272;28;20044;-67
2023/08/08 02:10:19;;;;;;;8.68;3.03;;;;;;;-141.23;100.00;62281.09;5031637;28;20049;-68
2023/08/08 02:12:46;;;;;;;16.98;3.15;;;;;;;-141.23;100.00;62281.09;5051870;28;20135;-67
2023/08/08 02:15:11;;;;;;;2.90;2.58;;;;;;;-141.23;100.00;62281.09;5034033;28;20522;-67
2023/08/08 02:17:39;;;;;;;6.80;2.63;;;;;;;-141.23;100.00;62281.09;5033684;28;20055;-67
2023/08/08 02:20:07;;;;;;;4.88;2.80;;;;;;;-141.23;100.00;62281.09;5053408;28;20202;-68
2023/08/08 02:22:34;;;;;;;7.78;2.95;;;;;;;-141.23;100.00;62281.09;5053568;28;20060;-67
2023/08/08 02:25:01;;;;;;;5.70;2.55;;;;;;;-141.23;100.00;62281.09;5036689;28;20067;-67
2023/08/08 02:27:29;;;;;;;3.60;2.97;;;;;;;-141.23;100.00;62281.09;4997847;28;20057;-67
2023/08/08 02:29:57;;;;;;;5.88;2.85;;;;;;;-141.23;100.00;62281.09;4997044;28;20056;-67
2023/08/08 02:32:23;;;;;;;5.55;2.65;;;;;;;-141.23;100.00;62281.09;5029716;28;20144;-67
2023/08/08 02:34:50;;;;;;;2.80;2.47;;;;;;;-141.23;100.00;62281.09;4981279;28;20542;-67
2023/08/08 02:37:16;;;;;;;3.97;2.60;;;;;;;-141.23;100.00;62281.09;5013028;28;20104;-66
2023/08/08 02:39:44;;;;;;;5.25;3.35;;;;;;;-141.23;100.00;62281.09;4981075;28;20037;-67
2023/08/08 02:42:10;;;;;;;5.78;2.60;;;;;;;-141.23;100.00;62281.09;5029790;28;20408;-66
2023/08/08 02:44:36;;;;;;;4.15;2.90;;;;;;;-141.23;100.00;62281.09;4997234;28;20107;-69
2023/08/08 02:47:02;;;;;;;6.47;2.65;;;;;;;-141.23;100.00;62281.09;4996961;28;20138;-68
2023/08/08 02:49:29;;;;;;;6.38;2.92;;;;;;;-141.23;100.00;62281.09;5013276;28;20172;-68
2023/08/08 02:51:55;;;;;;;7.47;2.72;;;;;;;-141.23;100.00;62281.09;5013108;28;20529;-66
2023/08/08 02:54:21;;;;;;;4.53;2.80;;;;;;;-141.23;100.00;62281.09;4997189;28;20052;-69
2023/08/08 02:56:48;;;;;;;6.93;2.60;;;;;;;-141.23;100.00;62281.09;4977885;28;20041;-67
2023/08/08 02:59:16;;;;;;;6.45;3.10;;;;;;;-141.23;100.00;62281.09;5041917;28;20089;-67
2023/08/08 03:01:43;;;;;;;6.32;2.58;;;;;;;-141.23;100.00;62281.09;5022136;28;20047;-67
2023/08/08 03:04:15;;;;;;;2.70;2.38;;;;;;;-141.23;100.00;62281.09;5054880;28;20048;-67
2023/08/08 03:06:41;;;;;;;4.10;2.63;;;;;;;-141.23;100.00;62281.09;5038053;28;20044;-67
2023/08/08 03:09:08;;;;;;;7.15;2.80;;;;;;;-141.23;100.00;62281.09;5056872;28;20072;-67
2023/08/08 03:11:37;;;;;;;4.40;2.60;;;;;;;-141.23;100.00;62281.09;5025027;28;20090;-66
2023/08/08 03:14:05;;;;;;;11.00;2.95;;;;;;;-141.23;100.00;62281.09;5017068;28;20514;-66
2023/08/08 03:16:32;;;;;;;4.85;2.55;;;;;;;-141.23;100.00;62281.09;5013055;28;20144;-68
2023/08/08 03:18:59;;;;;;;5.85;2.67;;;;;;;-141.23;100.00;62281.09;4964957;28;20145;-66
2023/08/08 03:21:25;;;;;;;7.38;2.88;;;;;;;-141.23;100.00;62281.09;4981038;28;20064;-66
2023/08/08 03:23:51;;;;;;;5.38;2.67;;;;;;;-141.23;100.00;62281.09;4965241;28;20050;-66
2023/08/08 03:26:18;;;;;;;7.78;2.75;;;;;;;-141.23;100.00;62281.09;4964679;28;20049;-69
2023/08/08 03:28:45;;;;;;;6.22;2.75;;;;;;;-141.23;100.00;62281.09;4963567;28;20081;-66
2023/08/08 03:31:11;;;;;;;3.58;2.70;;;;;;;-141.23;100.00;62281.09;4996370;28;20069;-70
2023/08/08 03:33:41;;;;;;;5.72;2.85;;;;;;;-141.23;100.00;62281.09;4964626;28;20050;-67
2023/08/08 03:36:10;;;;;;;6.95;3.90;;;;;;;-141.23;100.00;62281.09;4948087;28;20044;-67
2023/08/08 03:38:37;;;;;;;6.82;2.70;;;;;;;-141.23;100.00;62281.09;4964220;28;20049;-66
2023/08/08 03:41:05;;;;;;;6.38;2.70;;;;;;;-141.23;100.00;62281.09;4964618;28;20061;-67
2023/08/08 03:43:31;;;;;;;7.05;2.92;;;;;;;-141.23;100.00;62281.09;4948387;28;20498;-66
2023/08/08 03:45:58;;;;;;;4.57;2.50;;;;;;;-141.23;100.00;62281.09;4999764;28;20058;-66
2023/08/08 03:48:24;;;;;;;7.88;2.63;;;;;;;-141.23;100.00;62281.09;5019769;28;20056;-66
2023/08/08 03:50:50;;;;;;;9.38;3.22;;;;;;;-141.23;100.00;62281.09;5004076;28;20098;-66
2023/08/08 03:53:16;;;;;;;3.50;2.40;;;;;;;-141.23;100.00;62281.09;5021445;28;20057;-66
2023/08/08 03:55:43;;;;;;;7.88;2.70;;;;;;;-141.23;100.00;62281.09;5004875;28;20076;-67
2023/08/08 03:58:10;;;;;;;7.60;2.83;;;;;;;-141.23;100.00;62281.09;5004981;28;20471;-66
2023/08/08 04:00:39;;;;;;;6.00;2.30;;;;;;;-141.23;100.00;62281.09;5053828;28;20120;-66
2023/08/08 04:03:06;;;;;;;4.60;3.00;;;;;;;-141.23;100.00;62281.09;5021011;28;20349;-67
2023/08/08 04:05:32;;;;;;;5.55;2.60;;;;;;;-141.23;100.00;62281.09;5022275;28;20091;-66
2023/08/08 04:07:58;;;;;;;9.82;3.22;;;;;;;-141.23;100.00;62281.09;5006212;28;20041;-66
2023/08/08 04:10:24;;;;;;;4.78;2.70;;;;;;;-141.23;100.00;62281.09;5019398;28;20037;-66
2023/08/08 04:12:49;;;;;;;10.02;2.83;;;;;;;-141.23;100.00;62281.09;5020018;28;20399;-67
2023/08/08 04:15:15;;;;;;;6.05;2.78;;;;;;;-141.23;100.00;62281.09;5020027;28;20098;-66
2023/08/08 04:17:41;;;;;;;4.70;2.70;;;;;;;-141.23;100.00;62281.09;5020349;28;20052;-66
2023/08/08 04:20:09;;;;;;;7.53;2.90;;;;;;;-141.23;100.00;62281.09;5036842;28;20041;-67
2023/08/08 04:22:35;;;;;;;5.47;2.65;;;;;;;-141.23;100.00;62281.09;5004265;28;20052;-66
2023/08/08 04:25:01;;;;;;;4.90;2.60;;;;;;;-141.23;100.00;62281.09;5053247;28;20036;-66
2023/08/08 04:27:29;;;;;;;7.10;3.20;;;;;;;-141.23;100.00;62281.09;5021240;28;20036;-66
2023/08/08 04:29:56;;;;;;;14.63;3.38;;;;;;;-141.23;100.00;62281.09;5038679;28;20353;-66
2023/08/08 04:32:22;;;;;;;6.35;3.00;;;;;;;-141.23;100.00;62281.09;5039144;28;20045;-65
2023/08/08 04:34:48;;;;;;;5.43;2.78;;;;;;;-141.23;100.00;62281.09;5021996;28;20067;-66
2023/08/08 04:37:14;;;;;;;6.40;3.25;;;;;;;-141.23;100.00;62281.09;5020656;28;20051;-66
2023/08/08 04:39:40;;;;;;;6.88;3.13;;;;;;;-141.23;100.00;62281.09;5020574;28;20041;-66
2023/08/08 04:42:06;;;;;;;7.25;3.28;;;;;;;-141.23;100.00;62281.09;5036441;28;20359;-66
2023/08/08 04:44:32;;;;;;;4.05;3.00;;;;;;;-141.23;100.00;62281.09;5036758;28;20048;-66
2023/08/08 04:46:58;;;;;;;7.70;3.50;;;;;;;-141.23;100.00;62281.09;5036626;28;20214;-66
2023/08/08 04:49:23;;;;;;;6.15;2.90;;;;;;;-141.23;100.00;62281.09;5036160;28;20045;-66
2023/08/08 04:51:50;;;;;;;9.85;3.40;;;;;;;-141.23;100.00;62281.09;5003329;28;20044;-66
2023/08/08 04:54:16;;;;;;;7.15;3.17;;;;;;;-141.23;100.00;62281.09;5036094;28;20545;-66
2023/08/08 04:56:42;;;;;;;4.60;3.05;;;;;;;-141.23;100.00;62281.09;5019812;28;20033;-66
2023/08/08 04:59:07;;;;;;;3.22;2.70;;;;;;;-141.23;100.00;62281.09;5019575;28;20128;-66
2023/08/08 05:01:33;;;;;;;7.18;3.50;;;;;;;-141.23;100.00;62281.09;5019494;28;20053;-66
2023/08/08 05:03:59;;;;;;;5.80;3.13;;;;;;;-141.23;100.00;62281.09;5019357;28;20041;-66
2023/08/08 05:06:25;;;;;;;4.53;3.10;;;;;;;-141.23;100.00;62281.09;5035772;28;20051;-66
2023/08/08 05:08:53;;;;;;;6.55;3.05;;;;;;;-141.23;100.00;62281.09;5019198;28;20040;-66
2023/08/08 05:11:19;;;;;;;4.53;2.78;;;;;;;-141.23;100.00;62281.09;5019393;28;20057;-66
2023/08/08 05:13:45;;;;;;;4.88;3.22;;;;;;;-141.23;100.00;62281.09;5019444;28;20079;-66
2023/08/08 05:16:10;;;;;;;6.18;2.85;;;;;;;-141.23;100.00;62281.09;5018980;28;20053;-66
2023/08/08 05:18:36;;;;;;;7.15;3.22;;;;;;;-141.23;100.00;62281.09;5003054;28;20447;-66
2023/08/08 05:21:02;;;;;;;6.32;3.13;;;;;;;-141.23;100.00;62281.09;5018601;28;20075;-66
2023/08/08 05:23:28;;;;;;;5.60;3.28;;;;;;;-141.23;100.00;62281.09;5035227;28;20055;-66
2023/08/08 05:25:55;;;;;;;7.75;3.13;;;;;;;-141.23;100.00;62281.09;5035671;28;20501;-66
2023/08/08 05:28:20;;;;;;;6.18;2.88;;;;;;;-141.23;100.00;62281.09;5003011;28;20487;-66
2023/08/08 05:30:47;;;;;;;4.15;2.80;;;;;;;-141.23;100.00;62281.09;5003437;28;20048;-66
2023/08/08 05:33:13;;;;;;;5.70;3.00;;;;;;;-141.23;100.00;62281.09;5019297;28;20045;-68
2023/08/08 05:35:41;;;;;;;9.40;3.33;;;;;;;-141.23;100.00;62281.09;5035851;28;20044;-66
2023/08/08 05:38:08;;;;;;;5.93;3.20;;;;;;;-141.23;100.00;62281.09;4987342;28;20044;-66
2023/08/08 05:40:36;;;;;;;6.38;3.25;;;;;;;-141.23;100.00;62281.09;5051903;28;20067;-66
2023/08/08 05:43:04;;;;;;;10.30;3.38;;;;;;;-141.23;100.00;62281.09;5002938;28;20483;-66
2023/08/08 05:45:29;;;;;;;8.80;3.13;;;;;;;-141.23;100.00;62281.09;4986658;28;20044;-66
2023/08/08 05:48:00;;;;;;;6.65;3.13;;;;;;;-141.23;100.00;62281.09;5051921;28;20491;-66
2023/08/08 05:50:29;;;;;;;;;;;;;;;-141.23;100.00;62281.09;5035522;28;20515;-66
2023/08/08 05:52:55;;;;;;;9.07;3.17;;;;;;;-141.23;100.00;62281.09;5018912;28;19917;-66
2023/08/08 05:55:23;;;;;;;9.68;3.20;;;;;;;-141.23;100.00;62281.09;5020312;28;20052;-66
2023/08/08 05:57:49;;;;;;;7.55;3.00;;;;;;;-141.23;100.00;62281.09;5052123;28;20056;-66
2023/08/08 06:00:16;;;;;;;6.97;2.60;;;;;;;-141.23;100.00;62281.09;5035113;28;20056;-67
2023/08/08 06:02:43;;;;;;;5.60;2.83;;;;;;;-141.23;100.00;62281.09;5018351;28;20045;-66
2023/08/08 06:05:10;;;;;;;5.72;3.05;;;;;;;-141.23;100.00;62281.09;5018916;28;20071;-66
2023/08/08 06:07:37;;;;;;;12.70;3.10;;;;;;;-141.23;100.00;62281.09;5018290;28;20037;-67
2023/08/08 06:10:04;;;;;;;6.40;3.40;;;;;;;-141.23;100.00;62281.09;5051720;28;20427;-67
2023/08/08 06:12:32;;;;;;;6.90;2.92;;;;;;;-141.23;100.00;62281.09;5050949;28;20142;-66
2023/08/08 06:14:58;;;;;;;5.53;3.20;;;;;;;-141.23;100.00;62281.09;5001842;28;20459;-67
2023/08/08 06:17:24;;;;;;;11.48;2.78;;;;;;;-141.23;100.00;62281.09;5018302;28;20075;-67
2023/08/08 06:19:51;;;;;;;8.00;3.30;;;;;;;-141.23;100.00;62281.09;5002113;28;20496;-69
2023/08/08 06:22:18;;;;;;;3.90;2.80;;;;;;;-141.23;100.00;62281.09;5017440;28;20114;-66
2023/08/08 06:24:45;;;;;;;11.10;2.97;;;;;;;-141.23;100.00;62281.09;5013682;28;20091;-66
2023/08/08 06:27:13;;;;;;;12.48;2.80;;;;;;;-141.23;100.00;62281.09;5030587;28;20515;-66
2023/08/08 06:29:39;;;;;;;8.43;3.38;;;;;;;-141.23;100.00;62281.09;4997613;28;20049;-67
2023/08/08 06:32:05;;;;;;;6.95;3.65;;;;;;;-141.23;100.00;62281.09;5013493;28;20741;-66
2023/08/08 06:34:31;;;;;;;9.40;3.55;;;;;;;-141.23;100.00;62281.09;4997336;28;20049;-66
2023/08/08 06:36:57;;;;;;;9.32;3.00;;;;;;;-141.23;100.00;62281.09;5030200;28;20596;-67
2023/08/08 06:39:23;;;;;;;6.45;3.33;;;;;;;-141.23;100.00;62281.09;5013730;28;20033;-67
2023/08/08 06:41:50;;;;;;;12.98;3.35;;;;;;;-141.23;100.00;62281.09;5013684;28;20045;-66
2023/08/08 06:44:21;;;;;;;11.48;3.63;;;;;;;-141.23;100.00;62281.09;4997605;28;20150;-66
2023/08/08 06:46:47;;;;;;;11.52;3.67;;;;;;;-141.23;100.00;62281.09;5013627;28;20451;-66
2023/08/08 06:49:15;;;;;;;9.07;3.47;;;;;;;-141.23;100.00;62281.09;5013987;28;20041;-66
2023/08/08 06:51:41;;;;;;;12.18;3.60;;;;;;;-141.23;100.00;62281.09;4981921;28;20071;-67
2023/08/08 06:54:07;;;;;;;8.38;3.20;;;;;;;-141.23;100.00;62281.09;5014145;28;20053;-66
2023/08/08 06:56:33;;;;;;;10.43;3.30;;;;;;;-141.23;100.00;62281.09;5016727;28;20135;-66
2023/08/08 06:59:01;;;;;;;11.88;3.90;;;;;;;-141.23;100.00;62281.09;5000571;28;20188;-66
2023/08/08 07:01:27;;;;;;;9.45;3.75;;;;;;;-141.23;100.00;62281.09;5016509;28;20106;-66
2023/08/08 07:03:54;;;;;;;8.07;3.42;;;;;;;-141.23;100.00;62281.09;5033309;28;20122;-69
2023/08/08 07:06:20;;;;;;;10.02;3.53;;;;;;;-141.23;100.00;62281.09;5049677;28;20457;-66
2023/08/08 07:08:48;;;;;;;21.25;3.35;;;;;;;-141.23;100.00;62281.09;5016571;28;20088;-66
2023/08/08 07:11:14;;;;;;;7.43;3.33;;;;;;;-141.23;100.00;62281.09;5016539;28;20049;-66
2023/08/08 07:13:40;;;;;;;23.50;4.20;;;;;;;-141.23;100.00;62281.09;5000381;28;20465;-67
2023/08/08 07:16:07;;;;;;;14.38;3.75;;;;;;;-141.23;100.00;62281.09;5017448;28;20110;-67
2023/08/08 07:18:35;;;;;;;8.23;3.40;;;;;;;-141.23;100.00;62281.09;5017566;28;20048;-66
2023/08/08 07:21:01;;;;;;;14.45;3.83;;;;;;;-141.23;100.00;62281.09;4984118;28;20053;-66
2023/08/08 07:23:31;;;;;;;13.10;3.75;;;;;;;-141.23;100.00;62281.09;5000730;28;20053;-66
2023/08/08 07:25:57;;;;;;;6.60;3.42;;;;;;;-141.23;100.00;62281.09;4992806;28;20480;-66
2023/08/08 07:28:24;;;;;;;11.38;3.17;;;;;;;-141.23;100.00;62281.09;4993364;28;20088;-67
2023/08/08 07:30:50;;;;;;;11.95;3.60;;;;;;;-141.23;100.00;62281.09;4977462;28;20074;-66
2023/08/08 07:33:16;;;;;;;12.70;3.60;;;;;;;-141.23;100.00;62281.09;4993223;28;20077;-66
2023/08/08 07:35:43;;;;;;;7.93;3.80;;;;;;;-141.23;100.00;62281.09;4993652;28;20057;-66
2023/08/08 07:38:10;;;;;;;10.32;3.20;;;;;;;-141.23;100.00;62281.09;4977578;28;20041;-66
2023/08/08 07:40:36;;;;;;;10.50;3.95;;;;;;;-141.23;100.00;62281.09;4977337;28;20042;-67
2023/08/08 07:43:03;;;;;;;9.05;2.92;;;;;;;-141.23;100.00;62281.09;4977396;28;20215;-67
2023/08/08 07:45:32;;;;;;;12.73;3.13;;;;;;;-141.23;100.00;62281.09;4981103;28;20046;-67
2023/08/08 07:47:58;;;;;;;13.85;3.70;;;;;;;-141.23;100.00;62281.09;4964929;28;20424;-67
2023/08/08 07:50:24;;;;;;;11.18;3.47;;;;;;;-141.23;100.00;62281.09;4980739;28;20432;-67
2023/08/08 07:52:50;;;;;;;9.00;3.63;;;;;;;-141.23;100.00;62281.09;4980793;28;20057;-67
2023/08/08 07:55:16;;;;;;;11.98;3.30;;;;;;;-141.23;100.00;62281.09;4964643;28;20605;-67
2023/08/08 07:57:42;;;;;;;11.43;3.40;;;;;;;-141.23;100.00;62281.09;4964480;28;20046;-68
2023/08/08 08:00:13;;;;;;;7.28;3.50;;;;;;;-141.23;100.00;62281.09;5012383;28;20465;-67
2023/08/08 08:02:42;;;;;;;14.95;4.25;;;;;;;-141.23;100.00;62281.09;5021229;28;20057;-67
2023/08/08 08:05:09;;;;;;;11.82;3.35;;;;;;;-141.23;100.00;62281.09;5039396;28;20056;-67
2023/08/08 08:07:37;;;;;;;6.85;2.95;;;;;;;-141.23;100.00;62281.09;5006896;28;20546;-67
2023/08/08 08:10:05;;;;;;;8.88;3.22;;;;;;;-141.23;100.00;62281.09;5039329;28;20056;-67
2023/08/08 08:12:32;;;;;;;8.73;3.20;;;;;;;-141.23;100.00;62281.09;5022858;28;20509;-67
2023/08/08 08:14:58;;;;;;;9.70;3.58;;;;;;;-141.23;100.00;62281.09;5038851;28;20064;-67
2023/08/08 08:17:27;;;;;;;10.98;3.45;;;;;;;-141.23;100.00;62281.09;5023135;28;20076;-68
2023/08/08 08:19:54;;;;;;;12.60;2.80;;;;;;;-141.23;100.00;62281.09;5023706;28;20265;-68
2023/08/08 08:22:20;;;;;;;13.40;3.55;;;;;;;-141.23;100.00;62281.09;5023073;28;20044;-67
2023/08/08 08:24:46;;;;;;;10.00;2.92;;;;;;;-141.23;100.00;62281.09;5039043;28;20055;-67
2023/08/08 08:27:13;;;;;;;9.90;2.60;;;;;;;-141.23;100.00;62281.09;5038992;28;20489;-67
2023/08/08 08:29:40;;;;;;;10.77;3.50;;;;;;;-141.23;100.00;62281.09;5022392;28;20127;-67
2023/08/08 08:32:10;;;;;;;12.27;3.10;;;;;;;-141.23;100.00;62281.09;5036507;28;20045;-67
2023/08/08 08:34:37;;;;;;;13.75;3.28;;;;;;;-141.23;100.00;62281.09;5037277;28;20056;-67
2023/08/08 08:37:03;;;;;;;11.98;3.03;;;;;;;-141.23;100.00;62281.09;5020097;28;20127;-67
2023/08/08 08:39:29;;;;;;;10.00;2.65;;;;;;;-141.23;100.00;62281.09;5020010;28;20136;-68
2023/08/08 08:42:01;;;;;;;11.43;3.53;;;;;;;-141.23;100.00;62281.09;5020223;28;20132;-67
2023/08/08 08:44:30;;;;;;;9.50;3.20;;;;;;;-141.23;100.00;62281.09;5036551;28;20099;-67
2023/08/08 08:47:00;;;;;;;12.38;3.45;;;;;;;-141.23;100.00;62281.09;5036773;28;20388;-67
2023/08/08 08:49:30;;;;;;;16.45;3.20;;;;;;;-141.23;100.00;62281.09;5003977;28;20052;-67
2023/08/08 08:52:04;;;;;;;11.05;3.80;;;;;;;-141.23;100.00;62281.09;5036616;28;20056;-67
2023/08/08 08:54:31;;;;;;;8.18;3.20;;;;;;;-141.23;100.00;62281.09;5052658;28;20037;-68
2023/08/08 08:56:59;;;;;;;10.02;3.50;;;;;;;-141.23;100.00;62281.09;5003269;28;20098;-67
2023/08/08 08:59:25;;;;;;;17.52;3.42;;;;;;;-141.23;100.00;62281.09;5019739;28;20075;-69
2023/08/08 09:01:53;;;;;;;10.68;2.63;;;;;;;-141.23;100.00;62281.09;5003170;28;20048;-67
2023/08/08 09:04:20;;;;;;;12.75;3.20;;;;;;;-141.23;100.00;62281.09;4998581;28;20055;-67
2023/08/08 09:06:48;;;;;;;11.45;3.05;;;;;;;-141.23;100.00;62281.09;5015010;28;20119;-68
2023/08/08 09:09:16;;;;;;;7.95;3.00;;;;;;;-141.23;100.00;62281.09;4982436;28;20233;-67
2023/08/08 09:11:48;;;;;;;8.07;3.10;;;;;;;-141.23;100.00;62281.09;4950730;28;20049;-68
2023/08/08 09:14:22;;;;;;;8.85;2.70;;;;;;;-141.23;100.00;62281.09;4982202;28;20440;-68
2023/08/08 09:16:48;;;;;;;17.65;4.13;;;;;;;-141.23;100.00;62281.09;4982741;28;20049;-68
2023/08/08 09:19:15;;;;;;;8.27;2.70;;;;;;;-141.23;100.00;62281.09;5014666;28;20061;-68
2023/08/08 09:21:42;;;;;;;11.55;3.80;;;;;;;-141.23;100.00;62281.09;4998543;28;20041;-67
2023/08/08 09:24:08;;;;;;;11.85;3.53;;;;;;;-141.23;100.00;62281.09;4982494;28;20041;-68
2023/08/08 09:26:35;;;;;;;7.35;2.95;;;;;;;-141.23;100.00;62281.09;4967097;28;20053;-68
2023/08/08 09:29:02;;;;;;;9.82;3.40;;;;;;;-141.23;100.00;62281.09;4982891;28;20484;-70
2023/08/08 09:31:30;;;;;;;9.68;4.30;;;;;;;-141.23;100.00;62281.09;4998863;28;20046;-67
2023/08/08 09:33:59;;;;;;;13.57;3.22;;;;;;;-141.23;100.00;62281.09;4966673;28;20463;-67
2023/08/08 09:36:25;;;;;;;8.37;3.20;;;;;;;-141.23;100.00;62281.09;4965759;28;20049;-67
2023/08/08 09:38:53;;;;;;;12.40;3.38;;;;;;;-141.23;100.00;62281.09;4965976;28;20152;-67
2023/08/08 09:41:22;;;;;;;14.32;3.58;;;;;;;-141.23;100.00;62281.09;4965962;28;20084;-67
2023/08/08 09:43:48;;;;;;;11.07;3.57;;;;;;;-141.23;100.00;62281.09;4982223;28;20049;-67
2023/08/08 09:46:15;;;;;;;9.13;3.53;;;;;;;-141.23;100.00;62281.09;4981961;28;20079;-67
2023/08/08 09:48:43;;;;;;;10.55;3.22;;;;;;;-141.23;100.00;62281.09;4975786;28;20054;-67
2023/08/08 09:51:09;;;;;;;11.38;3.17;;;;;;;-141.23;100.00;62281.09;5002547;28;20430;-67
2023/08/08 09:53:37;;;;;;;9.38;3.30;;;;;;;-141.23;100.00;62281.09;5002073;28;20535;-68
2023/08/08 09:56:05;;;;;;;9.30;3.70;;;;;;;-141.23;100.00;62281.09;5002761;28;20072;-70
2023/08/08 09:58:32;;;;;;;13.35;3.75;;;;;;;-141.23;100.00;62281.09;5019438;28;20045;-67
2023/08/08 10:00:59;;;;;;;22.20;4.20;;;;;;;-141.23;100.00;62281.09;5019693;28;20064;-67
2023/08/08 10:03:29;;;;;;;10.35;3.20;;;;;;;-141.23;100.00;62281.09;5018160;28;20049;-67
2023/08/08 10:05:57;;;;;;;16.77;3.63;;;;;;;-141.23;100.00;62281.09;5033994;28;20110;-67
2023/08/08 10:08:23;;;;;;;16.13;4.03;;;;;;;-141.23;100.00;62281.09;5013723;28;20049;-68
2023/08/08 10:10:50;;;;;;;11.32;4.43;;;;;;;-141.23;100.00;62281.09;4997752;28;20051;-67
2023/08/08 10:13:24;;;;;;;12.18;4.07;;;;;;;-141.23;100.00;62281.09;4965424;28;20041;-67
2023/08/08 10:15:51;;;;;;;14.65;3.70;;;;;;;-141.23;100.00;62281.09;4997695;28;20079;-67
2023/08/08 10:18:18;;;;;;;16.35;3.67;;;;;;;-141.23;100.00;62281.09;5013808;28;20063;-67
2023/08/08 10:20:49;;;;;;;12.13;3.47;;;;;;;-141.23;100.00;62281.09;4997384;28;20057;-67
2023/08/08 10:23:17;;;;;;;17.52;3.90;;;;;;;-141.23;100.00;62281.09;5017425;28;20478;-67
2023/08/08 10:25:46;;;;;;;12.55;3.65;;;;;;;-141.23;100.00;62281.09;4984870;28;20049;-67
2023/08/08 10:28:14;;;;;;;18.90;3.75;;;;;;;-141.23;100.00;62281.09;5000819;28;20056;-67
2023/08/08 10:30:55;;;;;;;14.32;4.32;;;;;;;-141.23;100.00;62281.09;5017040;28;20199;-67
2023/08/08 10:33:41;;;;;;;15.15;3.97;;;;;;;-141.23;100.00;62281.09;4961503;28;20111;-67
2023/08/08 10:36:08;;;;;;;16.42;5.28;;;;;;;-141.23;100.00;62281.09;4993533;28;20568;-67
2023/08/08 10:38:43;;;;;;;28.30;5.03;;;;;;;-141.23;100.00;62281.09;4993858;28;20072;-69
2023/08/08 10:41:11;;;;;;;19.42;4.47;;;;;;;-141.23;100.00;62281.09;4993894;28;20382;-67
2023/08/08 10:43:40;;;;;;;13.90;4.40;;;;;;;-141.23;100.00;62281.09;4993713;28;20088;-67
2023/08/08 10:46:06;;;;;;;9.68;4.53;;;;;;;-141.23;100.00;62281.09;4990341;28;20045;-70
2023/08/08 10:48:32;;;;;;;10.85;4.07;;;;;;;-141.23;100.00;62281.09;4997412;28;20124;-67
2023/08/08 10:51:00;;;;;;;13.13;3.75;;;;;;;-141.23;100.00;62281.09;4997047;28;20061;-66
2023/08/08 10:53:27;;;;;;;18.35;3.95;;;;;;;-141.23;100.00;62281.09;4997065;28;20476;-67
2023/08/08 10:56:03;;;;;;;7.38;3.50;;;;;;;-141.23;100.00;62281.09;5013469;28;20041;-67
2023/08/08 10:58:40;;;;;;;12.13;3.97;;;;;;;-141.23;100.00;62281.09;4996996;28;20100;-67
2023/08/08 11:01:08;;;;;;;15.77;4.35;;;;;;;-141.23;100.00;62281.09;5030061;28;20480;-67
2023/08/08 11:03:37;;;;;;;12.13;4.18;;;;;;;-141.23;100.00;62281.09;5013843;28;20053;-67
2023/08/08 11:06:09;;;;;;;12.25;4.18;;;;;;;-141.23;100.00;62281.09;5013813;28;20049;-67
2023/08/08 11:08:37;;;;;;;12.32;4.18;;;;;;;-141.23;100.00;62281.09;4981225;28;20136;-67